Impacts TAF Board
For situational awareness. Not to be used for flight planning purposes.
IDs:

KLGA - New York/La Guardia, NY, US

Issued at 1140 UTC 15 Dec 2018
Updated at 1215 UTC 15 Dec 2018
Potential Impact None Slight Moderate High
Time<<16/01Z 16/02Z 16/03Z 16/04Z 16/05Z 16/06Z 16/07Z 16/08Z 16/09Z 16/10Z 16/11Z 16/12Z 16/13Z>>
Type PRVL PRVL PRVL PRVL PRVL PRVL PRVL PRVL PRVL PRVL PRVL PRVL PRVL
VIS >6 >6 >6 >6 5 5 5 3 3 3 3 3 3
CIG 50 50 50 50 50 50 50 15 15 15 15 15 15
Cover BKN BKN BKN BKN BKN BKN BKN OVC OVC OVC OVC BKN BKN
FltCat VFR VFR VFR VFR MVFR MVFR MVFR MVFR MVFR MVFR MVFR MVFR MVFR
WX -- -- -- -- -RA BR -RA BR -RA BR -RA BR -RA BR -RA BR -RA BR -RA BR -RA BR
WDir 20 20 20 20 50 50 50 50 50 50 50 50 50
WSpd 10 10 10 10 11 11 11 17 17 17 17 16 16
WGst 16 16 16 16 18 18 18 23 23 23 23 24 24
Raw TAF
KLGA 151140Z 1512/1618 VRB03KT 6SM -RA BR BKN004 OVC010
  TEMPO 1512/1515 4SM -RA BR BKN004
  FM151600 03007KT P6SM BKN015 BKN025
  FM151900 02010G16KT P6SM SCT035 BKN050
  FM160500 05011G18KT 5SM -RA BR BKN050
  FM160800 05017G23KT 3SM -RA BR BKN015 OVC035
  FM161200 05016G24KT 3SM -RA BR SCT007 BKN015


METAR Board
Radar Display
Forecast Discussion
For situational awareness. Not to be used for flight planning purposes.